Time;durP1;ratioP1;P1;durP2;ratioP2;P2;SDS_P1;SDS_P2;PMS_P1;PMS_P2;Temp;Humidity;BMP_temperature;BMP_pressure;BME280_temperature;BME280_humidity;BME280_pressure;Samples;Min_cycle;Max_cycle;Signal;HPM_P1;HPM_P2
2023/10/14 00:01:34;;;;;;;7.15;1.58;;;22.60;99.90;;;;;;5027082;28;20403;-68
2023/10/14 00:04:04;;;;;;;6.35;1.75;;;22.60;99.90;;;;;;5030381;28;20913;-68
2023/10/14 00:06:30;;;;;;;7.38;1.73;;;22.70;99.90;;;;;;5030863;28;20415;-69
2023/10/14 00:08:58;;;;;;;6.40;1.70;;;22.70;99.90;;;;;;5030438;28;20394;-69
2023/10/14 00:11:35;;;;;;;8.02;2.20;;;22.70;99.90;;;;;;5029851;28;20403;-69
2023/10/14 00:14:10;;;;;;;12.80;2.03;;;22.70;99.90;;;;;;5024408;28;20391;-69
2023/10/14 00:16:36;;;;;;;6.75;1.67;;;22.60;99.90;;;;;;5015662;28;20415;-69
2023/10/14 00:19:09;;;;;;;8.97;2.30;;;22.60;99.90;;;;;;5030097;28;20399;-69
2023/10/14 00:21:35;;;;;;;7.32;1.90;;;22.50;99.90;;;;;;5030229;28;20410;-69
2023/10/14 00:24:02;;;;;;;8.07;2.10;;;22.50;99.90;;;;;;5030112;28;20411;-70
2023/10/14 00:26:29;;;;;;;8.50;2.20;;;22.40;99.90;;;;;;5030264;28;20807;-70
2023/10/14 00:31:40;;;;;;;6.75;2.40;;;22.50;99.90;;;;;;5029863;28;20453;-68
2023/10/14 00:34:06;;;;;;;8.60;3.10;;;22.50;99.90;;;;;;5029934;28;20399;-68
2023/10/14 00:36:33;;;;;;;7.80;2.20;;;22.50;99.90;;;;;;5030151;28;20405;-69
2023/10/14 00:38:59;;;;;;;7.22;2.47;;;22.40;99.90;;;;;;5023065;28;20964;-69
2023/10/14 00:41:28;;;;;;;7.43;2.07;;;22.50;99.90;;;;;;5029314;28;20483;-68
2023/10/14 00:43:54;;;;;;;7.20;2.10;;;22.40;99.90;;;;;;5029175;28;20407;-68
2023/10/14 00:46:23;;;;;;;8.63;2.35;;;22.30;99.90;;;;;;5029265;28;20816;-68
2023/10/14 00:48:51;;;;;;;6.95;2.50;;;22.30;99.90;;;;;;5029406;28;20820;-68
2023/10/14 00:51:19;;;;;;;7.80;2.40;;;22.40;99.90;;;;;;5029203;28;20434;-68
2023/10/14 00:53:52;;;;;;;8.23;2.23;;;22.40;99.90;;;;;;5028320;28;20497;-68
2023/10/14 00:56:27;;;;;;;10.00;2.40;;;22.40;99.90;;;;;;5029711;28;20399;-68
2023/10/14 00:58:57;;;;;;;9.23;2.60;;;22.50;99.90;;;;;;5029502;28;20761;-68
2023/10/14 01:01:24;;;;;;;10.05;3.10;;;22.40;99.90;;;;;;5029039;28;21047;-69
2023/10/14 01:03:56;;;;;;;7.10;1.92;;;22.40;99.90;;;;;;5029066;28;20426;-68
2023/10/14 01:06:34;;;;;;;9.35;2.25;;;22.40;99.90;;;;;;5029307;28;20410;-68
2023/10/14 01:09:16;;;;;;;11.00;2.38;;;22.30;99.90;;;;;;5029866;28;20766;-68
2023/10/14 01:11:42;;;;;;;7.60;2.50;;;22.30;99.90;;;;;;5029277;28;20462;-68
2023/10/14 01:14:08;;;;;;;7.45;2.10;;;22.40;99.90;;;;;;5029430;28;20390;-68
2023/10/14 01:16:37;;;;;;;6.67;2.10;;;22.40;99.90;;;;;;5029071;28;20397;-68
2023/10/14 01:19:04;;;;;;;7.32;2.15;;;22.20;99.90;;;;;;5029006;28;20543;-68
2023/10/14 01:21:31;;;;;;;6.50;1.95;;;22.10;99.90;;;;;;5029514;28;20448;-67
2023/10/14 01:23:59;;;;;;;6.95;2.17;;;22.00;99.90;;;;;;5029198;28;20442;-67
2023/10/14 01:26:32;;;;;;;6.63;2.25;;;21.90;99.90;;;;;;5029111;28;20739;-67
2023/10/14 01:29:01;;;;;;;8.45;2.17;;;21.80;99.90;;;;;;5029446;28;20892;-69
2023/10/14 01:32:00;;;;;;;6.57;2.00;;;21.80;99.90;;;;;;5028905;28;20418;-69
2023/10/14 01:34:29;;;;;;;7.80;2.40;;;21.70;99.90;;;;;;5028875;28;20505;-69
2023/10/14 01:36:56;;;;;;;7.75;2.75;;;21.60;99.90;;;;;;5028786;28;20418;-69
2023/10/14 01:39:21;;;;;;;21.05;3.70;;;21.50;99.90;;;;;;5028804;28;20482;-69
2023/10/14 01:41:47;;;;;;;6.87;2.30;;;21.30;99.90;;;;;;5028798;28;20479;-69
2023/10/14 01:44:21;;;;;;;8.48;2.55;;;21.20;99.90;;;;;;5028336;28;20763;-69
2023/10/14 01:46:47;;;;;;;6.95;2.15;;;21.20;99.90;;;;;;5024038;28;20722;-69
2023/10/14 01:49:19;;;;;;;7.50;2.20;;;21.10;99.90;;;;;;5028764;28;20502;-68
2023/10/14 01:51:49;;;;;;;8.48;2.78;;;21.10;99.90;;;;;;5029827;28;20395;-68
2023/10/14 01:54:16;;;;;;;10.27;2.33;;;21.00;99.90;;;;;;5033145;28;20402;-68
2023/10/14 01:56:43;;;;;;;10.80;2.97;;;20.90;99.90;;;;;;5032567;28;20407;-68
2023/10/14 01:59:09;;;;;;;7.68;2.70;;;20.90;99.90;;;;;;5031604;28;20407;-68
2023/10/14 02:01:41;;;;;;;7.20;2.60;;;21.00;99.90;;;;;;5029561;28;20410;-69
2023/10/14 02:04:07;;;;;;;7.40;2.60;;;20.90;99.90;;;;;;5032677;28;20509;-68
2023/10/14 02:06:33;;;;;;;8.82;2.58;;;20.90;99.90;;;;;;5032605;28;20421;-68
2023/10/14 02:09:00;;;;;;;7.00;2.40;;;21.00;99.90;;;;;;5032973;28;20415;-68
2023/10/14 02:11:33;;;;;;;9.00;2.80;;;20.80;99.90;;;;;;5032371;28;20441;-68
2023/10/14 02:14:02;;;;;;;7.23;2.73;;;20.70;99.90;;;;;;5032682;28;20509;-68
2023/10/14 02:16:30;;;;;;;8.85;2.60;;;20.80;99.90;;;;;;5032386;28;20456;-68
2023/10/14 02:21:43;;;;;;;7.45;2.28;;;20.90;99.90;;;;;;5032441;28;20406;-68
2023/10/14 02:24:10;;;;;;;7.10;2.70;;;20.80;99.90;;;;;;5032264;28;20402;-68
2023/10/14 02:26:38;;;;;;;7.68;2.88;;;20.90;99.90;;;;;;5031757;28;20443;-69
2023/10/14 02:29:07;;;;;;;7.60;2.88;;;20.80;99.90;;;;;;5032046;28;20753;-69
2023/10/14 02:31:36;;;;;;;7.40;2.78;;;20.90;99.90;;;;;;5032448;28;20395;-69
2023/10/14 02:34:05;;;;;;;12.00;2.95;;;20.90;99.90;;;;;;5032540;28;20490;-69
2023/10/14 02:36:49;;;;;;;10.57;3.25;;;20.90;99.90;;;;;;5032755;28;20398;-69
2023/10/14 02:39:16;;;;;;;8.50;3.10;;;20.90;99.90;;;;;;5026876;28;20410;-69
2023/10/14 02:41:44;;;;;;;8.02;2.33;;;21.00;99.90;;;;;;5031517;28;20427;-69
2023/10/14 02:46:47;;;;;;;6.43;2.05;;;20.90;99.90;;;;;;5052247;28;20405;-68
2023/10/14 02:49:18;;;;;;;9.15;2.83;;;20.90;99.90;;;;;;5037119;28;20482;-69
2023/10/14 02:51:45;;;;;;;8.43;2.85;;;21.00;99.90;;;;;;5032358;28;20391;-69
2023/10/14 02:54:26;;;;;;;7.90;2.78;;;20.90;99.90;;;;;;5031673;28;20901;-69
2023/10/14 02:56:59;;;;;;;13.43;3.23;;;20.90;99.90;;;;;;5031353;28;20407;-68
2023/10/14 02:59:44;;;;;;;8.05;2.90;;;20.90;99.90;;;;;;5031157;28;20808;-68
2023/10/14 03:04:43;;;;;;;6.80;2.05;;;20.70;99.90;;;;;;5031650;28;20426;-69
2023/10/14 03:07:09;;;;;;;8.07;2.55;;;20.70;1.00;;;;;;5031368;28;20542;-68
2023/10/14 03:09:35;;;;;;;7.87;2.60;;;20.60;1.00;;;;;;5031128;28;20402;-68
2023/10/14 03:12:01;;;;;;;8.57;3.10;;;20.70;1.00;;;;;;5031443;28;20463;-68
2023/10/14 03:14:30;;;;;;;7.57;2.50;;;20.70;1.00;;;;;;5031461;28;20884;-68
2023/10/14 03:16:55;;;;;;;7.53;2.72;;;20.70;1.00;;;;;;5031600;28;20399;-68
2023/10/14 03:19:24;;;;;;;9.97;2.90;;;20.80;1.00;;;;;;5030949;28;20896;-68
2023/10/14 03:21:58;;;;;;;8.07;2.72;;;20.80;1.00;;;;;;5031239;28;20391;-69
2023/10/14 03:24:26;;;;;;;7.03;2.35;;;20.80;1.00;;;;;;5031102;28;20758;-68
2023/10/14 03:27:01;;;;;;;8.23;3.00;;;20.80;1.00;;;;;;5031049;28;20410;-68
2023/10/14 03:29:28;;;;;;;8.80;2.38;;;20.70;1.00;;;;;;5031096;28;20438;-68
2023/10/14 03:31:55;;;;;;;8.50;3.40;;;20.70;1.00;;;;;;5031813;28;20403;-68
2023/10/14 03:34:25;;;;;;;11.90;2.78;;;20.80;1.00;;;;;;5025197;28;20409;-68
2023/10/14 03:37:00;;;;;;;12.50;3.40;;;20.80;1.00;;;;;;5023674;28;20399;-68
2023/10/14 03:39:40;;;;;;;13.40;3.13;;;20.90;1.00;;;;;;5031034;28;20418;-69
2023/10/14 03:42:10;;;;;;;8.02;2.58;;;20.90;1.00;;;;;;5031092;28;20415;-69
2023/10/14 03:44:36;;;;;;;8.57;2.10;;;20.80;1.00;;;;;;5030465;28;20430;-68
2023/10/14 03:47:03;;;;;;;7.38;2.80;;;20.90;1.00;;;;;;5031604;28;20756;-68
2023/10/14 03:49:32;;;;;;;7.70;2.65;;;20.80;1.00;;;;;;5024327;28;20485;-69
2023/10/14 03:51:58;;;;;;;8.00;3.05;;;20.90;1.00;;;;;;5031220;28;20438;-69
2023/10/14 03:54:24;;;;;;;12.27;3.00;;;20.90;1.00;;;;;;5030306;28;20438;-69
2023/10/14 03:56:56;;;;;;;8.10;2.80;;;21.00;1.00;;;;;;5029825;28;20383;-69
2023/10/14 03:59:23;;;;;;;8.75;2.40;;;21.00;99.90;;;;;;5029942;28;20391;-69
2023/10/14 04:01:57;;;;;;;7.38;2.30;;;21.00;1.00;;;;;;5029035;28;20406;-69
2023/10/14 04:04:24;;;;;;;20.10;2.63;;;20.90;1.00;;;;;;5012939;28;21216;-69
2023/10/14 04:09:51;;;;;;;7.35;2.58;;;20.90;1.00;;;;;;5030367;28;20407;-68
2023/10/14 04:12:40;;;;;;;6.23;2.10;;;20.80;99.90;;;;;;5030151;28;20891;-69
2023/10/14 04:15:33;;;;;;;8.50;2.15;;;20.20;1.00;;;;;;5029839;28;20395;-69
2023/10/14 04:17:55;;;;;;;5.03;1.00;;;19.40;1.00;;;;;;5030310;28;20422;-69
2023/10/14 04:20:22;;;;;;;6.80;1.40;;;18.50;99.90;;;;;;5030096;28;20404;-69
2023/10/14 04:22:51;;;;;;;5.30;1.47;;;18.10;1.00;;;;;;5028432;28;20407;-69
2023/10/14 04:25:21;;;;;;;6.85;1.50;;;17.90;1.00;;;;;;5029272;28;20423;-69
2023/10/14 04:31:00;;;;;;;17.35;1.95;;;17.50;1.00;;;;;;5029212;28;20793;-69
2023/10/14 04:35:56;;;;;;;4.50;1.20;;;17.40;1.00;;;;;;5028654;28;20410;-68
2023/10/14 04:38:28;;;;;;;5.47;1.48;;;17.30;1.00;;;;;;5024670;28;20434;-68
2023/10/14 04:40:54;;;;;;;5.85;1.65;;;17.20;1.00;;;;;;5028937;28;20414;-68
2023/10/14 04:43:59;;;;;;;6.40;1.60;;;17.30;4.20;;;;;;5028996;28;20403;-68
2023/10/14 04:46:21;;;;;;;4.70;1.20;;;17.40;2.70;;;;;;5027151;28;20928;-68
2023/10/14 04:48:59;;;;;;;7.97;1.15;;;17.50;4.10;;;;;;5026983;28;20398;-68
2023/10/14 04:51:34;;;;;;;5.47;1.70;;;17.50;1.00;;;;;;5027098;28;20403;-68
2023/10/14 04:54:00;;;;;;;9.93;2.13;;;17.60;1.00;;;;;;5029686;28;20425;-68
2023/10/14 04:56:32;;;;;;;4.90;1.20;;;17.40;1.00;;;;;;5027268;28;20766;-68
2023/10/14 04:58:57;;;;;;;4.53;1.13;;;17.40;1.00;;;;;;5028537;28;20387;-69
2023/10/14 05:01:27;;;;;;;5.00;1.03;;;17.40;1.00;;;;;;5028758;28;20399;-69
2023/10/14 05:03:57;;;;;;;4.57;1.30;;;17.40;1.00;;;;;;5029042;28;21853;-69
2023/10/14 05:06:23;;;;;;;5.10;1.30;;;17.40;1.00;;;;;;5026359;28;20423;-69
2023/10/14 05:08:55;;;;;;;6.15;2.00;;;17.50;1.00;;;;;;5028493;28;20413;-69
2023/10/14 05:11:25;;;;;;;4.90;1.33;;;17.60;1.00;;;;;;5026331;28;20742;-70
2023/10/14 05:14:10;;;;;;;4.57;1.20;;;17.80;1.00;;;;;;5028555;28;20529;-70
2023/10/14 05:19:23;;;;;;;5.43;1.42;;;18.10;1.00;;;;;;5028193;28;20399;-70
2023/10/14 05:21:57;;;;;;;7.73;2.00;;;18.00;1.00;;;;;;5028362;28;20402;-70
2023/10/14 05:24:23;;;;;;;6.20;1.60;;;18.00;1.00;;;;;;5027982;28;20430;-70
2023/10/14 05:26:58;;;;;;;4.70;1.70;;;18.00;1.00;;;;;;5028306;28;20394;-70
2023/10/14 05:29:26;;;;;;;5.00;1.65;;;17.90;1.00;;;;;;5026509;28;20399;-70
2023/10/14 05:31:52;;;;;;;5.60;1.73;;;17.80;1.00;;;;;;5028436;28;20779;-69
2023/10/14 05:34:22;;;;;;;5.78;1.70;;;17.80;1.00;;;;;;5028177;28;20409;-70
2023/10/14 05:36:55;;;;;;;7.40;2.40;;;17.80;1.00;;;;;;5028026;28;20946;-71
2023/10/14 05:39:24;;;;;;;5.82;2.30;;;17.70;1.00;;;;;;5026661;28;20395;-69
2023/10/14 05:41:58;;;;;;;8.60;1.60;;;17.60;1.00;;;;;;5028439;28;20460;-70
2023/10/14 05:44:29;;;;;;;8.05;1.90;;;17.60;1.00;;;;;;5028053;28;20435;-69
2023/10/14 05:46:57;;;;;;;4.97;1.55;;;17.50;1.00;;;;;;5028478;28;20484;-69
2023/10/14 05:49:24;;;;;;;5.35;1.27;;;17.50;1.00;;;;;;5026436;28;20403;-69
2023/10/14 05:51:51;;;;;;;6.95;2.30;;;17.50;1.00;;;;;;5028532;28;20391;-69
2023/10/14 05:54:17;;;;;;;7.70;1.80;;;17.50;1.00;;;;;;5028143;28;20407;-69
2023/10/14 05:56:43;;;;;;;5.25;1.50;;;17.50;1.00;;;;;;5014981;28;20404;-70
2023/10/14 05:59:10;;;;;;;7.00;1.70;;;17.60;1.00;;;;;;5026535;28;20633;-70
2023/10/14 06:01:38;;;;;;;4.65;1.10;;;17.60;1.00;;;;;;5028906;28;20403;-69
2023/10/14 06:04:04;;;;;;;5.00;1.20;;;17.50;1.00;;;;;;5025037;28;20465;-68
2023/10/14 06:06:31;;;;;;;4.65;1.38;;;17.60;1.00;;;;;;5022109;28;20419;-69
2023/10/14 06:09:00;;;;;;;6.40;1.13;;;17.60;1.00;;;;;;5024760;28;20441;-69
2023/10/14 06:11:26;;;;;;;4.40;1.00;;;17.70;1.00;;;;;;5028134;28;20437;-69
2023/10/14 06:13:51;;;;;;;5.28;1.40;;;17.80;99.90;;;;;;5027795;28;20407;-69
2023/10/14 06:16:17;;;;;;;5.20;1.10;;;17.80;99.90;;;;;;5027992;28;20422;-69
2023/10/14 06:18:47;;;;;;;4.83;1.10;;;17.90;99.90;;;;;;5027777;28;20427;-69
2023/10/14 06:21:15;;;;;;;4.57;1.02;;;18.00;99.90;;;;;;5028018;28;20896;-70
2023/10/14 06:23:46;;;;;;;5.60;1.20;;;18.00;99.90;;;;;;5027042;28;20417;-70
2023/10/14 06:26:16;;;;;;;5.50;1.60;;;18.10;99.90;;;;;;5026898;28;20488;-70
2023/10/14 06:28:42;;;;;;;7.20;1.00;;;18.20;99.90;;;;;;5028172;28;20769;-70
2023/10/14 06:31:08;;;;;;;5.15;1.13;;;18.20;99.90;;;;;;5030771;28;20491;-69
2023/10/14 06:33:33;;;;;;;5.10;1.10;;;18.10;99.90;;;;;;5027524;28;20456;-70
2023/10/14 06:36:04;;;;;;;5.30;1.17;;;18.00;99.90;;;;;;5028062;28;20885;-70
2023/10/14 06:38:29;;;;;;;5.00;1.30;;;18.00;99.90;;;;;;5030049;28;20897;-70
2023/10/14 06:41:01;;;;;;;7.82;1.50;;;18.20;99.90;;;;;;5030987;28;20429;-70
2023/10/14 06:43:27;;;;;;;4.40;0.90;;;18.10;99.90;;;;;;5030072;28;20407;-69
2023/10/14 06:45:56;;;;;;;5.80;1.00;;;18.10;99.90;;;;;;5029205;28;20534;-69
2023/10/14 06:48:22;;;;;;;4.68;0.90;;;18.00;99.90;;;;;;5029688;28;20438;-70
2023/10/14 06:50:47;;;;;;;5.10;0.93;;;18.30;99.90;;;;;;5030861;28;20423;-69
2023/10/14 06:53:15;;;;;;;5.00;0.80;;;18.30;99.90;;;;;;5031362;28;20452;-69
2023/10/14 06:55:41;;;;;;;4.38;0.88;;;18.30;99.90;;;;;;5030309;28;20482;-69
2023/10/14 06:58:12;;;;;;;5.20;1.20;;;18.30;1.00;;;;;;5029823;28;20414;-69
2023/10/14 07:00:39;;;;;;;4.70;1.08;;;18.40;1.00;;;;;;5029566;28;20909;-69
2023/10/14 07:03:07;;;;;;;6.40;1.25;;;18.50;1.00;;;;;;5031442;28;20384;-69
2023/10/14 07:05:43;;;;;;;4.40;0.70;;;18.50;99.90;;;;;;5031360;28;20413;-70
2023/10/14 07:08:09;;;;;;;4.50;0.90;;;18.50;1.00;;;;;;5028829;28;20426;-71
2023/10/14 07:10:35;;;;;;;7.05;0.85;;;18.70;99.90;;;;;;5032456;28;21092;-69
2023/10/14 07:13:03;;;;;;;5.32;0.90;;;18.80;99.90;;;;;;5031352;28;20486;-69
2023/10/14 07:15:34;;;;;;;5.78;1.10;;;19.00;95.00;;;;;;5031249;28;20402;-71
2023/10/14 07:18:01;;;;;;;4.38;0.80;;;19.00;1.00;;;;;;5032808;28;20414;-70
2023/10/14 07:20:30;;;;;;;5.63;0.60;;;19.00;99.90;;;;;;5031053;28;20396;-70
2023/10/14 07:23:03;;;;;;;4.30;0.75;;;19.10;99.90;;;;;;5028866;28;20394;-70
2023/10/14 07:25:35;;;;;;;5.27;0.90;;;19.10;1.00;;;;;;5031086;28;20498;-70
2023/10/14 07:28:07;;;;;;;4.50;0.40;;;19.20;1.00;;;;;;5031486;28;20395;-71
2023/10/14 07:30:34;;;;;;;5.60;1.20;;;19.40;1.00;;;;;;5036962;28;20403;-70
2023/10/14 07:33:01;;;;;;;7.65;0.93;;;19.30;1.00;;;;;;5033906;28;20399;-70
2023/10/14 07:35:27;;;;;;;4.20;0.60;;;19.30;99.90;;;;;;5029471;28;20409;-70
2023/10/14 07:37:53;;;;;;;7.43;1.10;;;19.40;99.90;;;;;;5030908;28;20375;-70
2023/10/14 07:40:23;;;;;;;4.70;0.97;;;19.70;1.00;;;;;;5030452;28;20387;-71
2023/10/14 07:43:05;;;;;;;4.38;0.80;;;19.60;1.00;;;;;;5030362;28;20395;-71
2023/10/14 07:45:35;;;;;;;4.60;0.90;;;19.70;79.10;;;;;;5028288;28;20421;-69
2023/10/14 07:48:10;;;;;;;4.20;0.60;;;20.30;99.90;;;;;;5030454;28;20769;-69
2023/10/14 07:50:39;;;;;;;7.00;1.20;;;20.20;99.90;;;;;;5028167;28;20417;-69
2023/10/14 07:53:12;;;;;;;8.00;0.90;;;20.50;99.90;;;;;;5028011;28;20418;-68
2023/10/14 07:55:47;;;;;;;5.37;1.47;;;;;;;;;;5030200;28;20470;-68
2023/10/14 07:58:14;;;;;;;4.90;0.60;;;;;;;;;;5028823;28;20398;-68
2023/10/14 08:00:48;;;;;;;5.05;0.80;;;23.40;1.00;;;;;;5029996;28;21004;-70
2023/10/14 08:03:18;;;;;;;7.50;1.15;;;23.40;1.00;;;;;;5029713;28;20423;-70
2023/10/14 08:05:51;;;;;;;4.55;0.75;;;23.10;1.00;;;;;;5026239;28;20458;-70
2023/10/14 08:08:19;;;;;;;5.18;0.70;;;22.60;1.00;;;;;;5027046;28;20430;-68
2023/10/14 08:10:47;;;;;;;6.80;0.60;;;22.30;1.00;;;;;;5031115;28;20395;-70
2023/10/14 08:13:13;;;;;;;4.88;0.70;;;23.00;1.00;;;;;;5011796;28;20392;-70
2023/10/14 08:15:42;;;;;;;5.43;0.82;;;23.00;1.00;;;;;;5028468;28;20423;-70
2023/10/14 08:18:08;;;;;;;6.15;1.45;;;22.30;1.00;;;;;;5029694;28;20877;-70
2023/10/14 08:20:34;;;;;;;4.67;0.77;;;21.80;99.90;;;;;;5029731;28;20448;-69
2023/10/14 08:23:01;;;;;;;4.40;0.60;;;21.50;99.90;;;;;;5030366;28;20414;-69
2023/10/14 08:25:28;;;;;;;4.50;0.50;;;21.70;99.90;;;;;;5031776;28;20828;-69
2023/10/14 08:27:55;;;;;;;5.10;0.73;;;21.70;99.90;;;;;;5029515;28;20464;-70
2023/10/14 08:30:24;;;;;;;4.75;0.88;;;21.60;99.90;;;;;;5029298;28;20746;-69
2023/10/14 08:32:55;;;;;;;5.30;0.75;;;22.00;99.90;;;;;;5025726;28;20409;-69
2023/10/14 08:35:27;;;;;;;4.90;0.70;;;22.20;99.90;;;;;;5023997;28;20398;-69
2023/10/14 08:37:54;;;;;;;4.50;0.70;;;22.10;99.90;;;;;;5027496;28;20887;-70
2023/10/14 08:40:25;;;;;;;5.10;1.13;;;22.00;99.90;;;;;;5027730;28;20553;-70
2023/10/14 08:43:06;;;;;;;6.60;1.10;;;22.00;99.90;;;;;;5029704;28;20390;-69
2023/10/14 08:45:36;;;;;;;5.85;0.73;;;21.70;99.90;;;;;;5029747;28;20526;-69
2023/10/14 08:48:05;;;;;;;4.85;0.80;;;21.30;1.00;;;;;;5027223;28;21291;-69
2023/10/14 08:50:35;;;;;;;4.40;0.70;;;21.10;1.00;;;;;;5029360;28;20403;-69
2023/10/14 08:53:04;;;;;;;5.63;0.70;;;20.80;1.00;;;;;;5028905;28;20765;-69
2023/10/14 08:55:32;;;;;;;4.10;0.30;;;20.20;99.90;;;;;;5030233;28;20754;-71
2023/10/14 08:58:01;;;;;;;4.30;0.40;;;18.90;50.10;;;;;;5030346;28;20873;-70
2023/10/14 09:00:29;;;;;;;4.00;0.30;;;18.00;1.00;;;;;;5029182;28;20441;-70
2023/10/14 09:02:56;;;;;;;4.10;0.50;;;17.30;1.00;;;;;;5027938;28;21038;-69
2023/10/14 09:05:23;;;;;;;4.10;0.50;;;16.90;1.00;;;;;;5029623;28;20901;-69
2023/10/14 09:07:50;;;;;;;4.15;0.57;;;16.50;25.10;;;;;;5029521;28;20426;-69
2023/10/14 09:10:18;;;;;;;4.00;0.50;;;16.30;71.80;;;;;;5029485;28;20706;-69
2023/10/14 09:13:00;;;;;;;3.90;0.40;;;16.30;99.90;;;;;;5029687;28;20399;-69
2023/10/14 09:15:27;;;;;;;3.90;0.55;;;16.30;99.90;;;;;;5029358;28;20402;-69
2023/10/14 09:17:56;;;;;;;3.90;0.50;;;16.30;99.90;;;;;;5020378;28;20399;-69
2023/10/14 09:20:35;;;;;;;5.30;0.90;;;16.30;99.90;;;;;;5029656;28;20403;-69
2023/10/14 09:23:32;;;;;;;3.90;0.75;;;16.40;99.90;;;;;;5030265;28;20393;-69
2023/10/14 09:26:00;;;;;;;3.80;0.50;;;16.50;98.90;;;;;;5029918;28;20947;-69
2023/10/14 09:28:34;;;;;;;3.80;0.50;;;16.50;99.90;;;;;;5029129;28;20417;-69
2023/10/14 09:31:08;;;;;;;3.90;0.70;;;16.60;98.50;;;;;;5029220;28;20407;-69
2023/10/14 09:33:41;;;;;;;3.90;0.50;;;16.60;91.10;;;;;;5015331;28;20413;-69
2023/10/14 09:36:11;;;;;;;3.95;0.60;;;16.70;72.10;;;;;;5008019;28;20484;-69
2023/10/14 09:38:39;;;;;;;3.97;0.70;;;16.70;92.90;;;;;;5009773;28;20387;-70
2023/10/14 09:41:07;;;;;;;4.25;0.77;;;16.70;99.00;;;;;;5024870;28;20445;-70
2023/10/14 09:43:34;;;;;;;4.37;0.70;;;16.70;99.90;;;;;;5029715;28;20472;-69
2023/10/14 09:46:03;;;;;;;4.20;1.35;;;16.90;99.50;;;;;;5029123;28;20912;-69
2023/10/14 09:48:31;;;;;;;3.90;0.70;;;17.00;81.20;;;;;;5026127;28;20439;-70
2023/10/14 09:51:00;;;;;;;4.30;0.70;;;17.20;72.70;;;;;;5028215;28;20440;-71
2023/10/14 09:53:27;;;;;;;3.88;0.63;;;17.30;42.50;;;;;;5028883;28;20395;-70
2023/10/14 09:55:58;;;;;;;3.80;0.60;;;17.40;36.30;;;;;;5029186;28;20399;-70
2023/10/14 09:58:30;;;;;;;4.27;0.70;;;17.50;23.50;;;;;;5028404;28;20388;-69
2023/10/14 10:00:58;;;;;;;3.75;0.45;;;17.50;1.00;;;;;;5025475;28;20889;-71
2023/10/14 10:03:23;;;;;;;4.20;0.70;;;17.60;1.00;;;;;;5027811;28;20429;-71
2023/10/14 10:06:06;;;;;;;3.80;0.60;;;17.60;1.00;;;;;;5029622;28;20493;-69
2023/10/14 10:08:41;;;;;;;3.70;0.50;;;17.40;1.00;;;;;;5026906;28;20403;-69
2023/10/14 10:11:07;;;;;;;4.20;0.60;;;17.60;1.00;;;;;;5027921;28;20383;-70
2023/10/14 10:13:35;;;;;;;3.80;0.60;;;17.60;1.00;;;;;;5031423;28;20387;-70
2023/10/14 10:16:05;;;;;;;4.10;0.60;;;17.60;1.00;;;;;;5038936;28;20382;-71
2023/10/14 10:18:58;;;;;;;4.32;0.90;;;17.70;1.00;;;;;;5035079;28;20936;-71
2023/10/14 10:21:31;;;;;;;3.70;0.43;;;18.00;1.00;;;;;;5031891;28;20406;-71
2023/10/14 10:24:24;;;;;;;4.10;0.60;;;17.80;1.00;;;;;;5031906;28;20477;-70
2023/10/14 10:27:08;;;;;;;4.30;0.70;;;18.00;1.00;;;;;;5030992;28;20468;-70
2023/10/14 10:29:50;;;;;;;3.85;0.50;;;18.00;1.00;;;;;;5031586;28;20761;-70
2023/10/14 10:32:20;;;;;;;3.97;0.60;;;18.10;1.00;;;;;;5029844;28;20460;-70
2023/10/14 10:35:05;;;;;;;4.10;0.85;;;18.10;1.00;;;;;;5031215;28;20418;-71
2023/10/14 10:37:49;;;;;;;4.78;0.65;;;18.00;1.00;;;;;;5030221;28;20913;-71
2023/10/14 10:40:22;;;;;;;4.00;0.60;;;18.10;1.00;;;;;;5030165;28;20944;-71
2023/10/14 10:42:53;;;;;;;4.00;0.60;;;17.90;1.00;;;;;;5031371;28;20887;-71
2023/10/14 10:45:25;;;;;;;4.70;0.90;;;17.80;1.00;;;;;;5031542;28;20414;-71
2023/10/14 10:48:04;;;;;;;4.10;0.60;;;17.80;1.00;;;;;;5028994;28;20820;-71
2023/10/14 10:50:36;;;;;;;4.10;0.70;;;17.80;1.00;;;;;;5045258;28;20394;-70
2023/10/14 10:53:07;;;;;;;6.70;0.80;;;17.70;1.00;;;;;;5030969;28;20410;-71
2023/10/14 10:55:36;;;;;;;4.15;0.60;;;17.70;1.00;;;;;;5028118;28;20916;-71
2023/10/14 10:58:02;;;;;;;4.20;1.00;;;17.40;1.00;;;;;;5031689;28;20391;-71
2023/10/14 11:00:32;;;;;;;3.92;0.60;;;17.10;1.00;;;;;;5032199;28;20394;-69
2023/10/14 11:03:02;;;;;;;13.70;0.70;;;17.00;1.00;;;;;;5029976;28;20418;-68
2023/10/14 11:05:31;;;;;;;4.17;0.60;;;17.00;1.00;;;;;;5031822;28;20425;-69
2023/10/14 11:07:57;;;;;;;4.30;0.90;;;17.00;1.00;;;;;;5029447;28;20457;-69
2023/10/14 11:10:26;;;;;;;4.50;0.57;;;17.00;1.00;;;;;;5031261;28;20394;-69
2023/10/14 11:12:54;;;;;;;4.10;0.63;;;16.90;1.00;;;;;;5029778;28;20391;-69
2023/10/14 11:15:22;;;;;;;4.28;0.90;;;16.90;1.00;;;;;;5028607;28;20399;-69
2023/10/14 11:17:52;;;;;;;3.70;0.40;;;16.90;1.00;;;;;;5031177;28;20405;-68
2023/10/14 11:20:18;;;;;;;4.30;0.70;;;16.90;1.00;;;;;;5030959;28;20398;-70
2023/10/14 11:22:44;;;;;;;3.80;0.50;;;16.90;1.00;;;;;;5030689;28;20407;-69
2023/10/14 11:25:13;;;;;;;4.20;0.70;;;16.80;1.00;;;;;;5030491;28;20813;-70
2023/10/14 11:27:41;;;;;;;3.90;0.70;;;16.70;1.00;;;;;;5030920;28;20462;-69
2023/10/14 11:30:12;;;;;;;3.83;0.55;;;16.50;1.00;;;;;;5031476;28;20391;-70
2023/10/14 11:32:48;;;;;;;4.10;0.50;;;16.50;1.00;;;;;;5030387;28;20414;-70
2023/10/14 11:35:16;;;;;;;3.80;0.60;;;16.40;9.60;;;;;;5026896;28;20469;-70
2023/10/14 11:37:43;;;;;;;3.80;0.50;;;16.40;1.00;;;;;;5029957;28;20944;-70
2023/10/14 11:40:14;;;;;;;4.40;0.70;;;16.20;1.00;;;;;;5030808;28;20391;-69
2023/10/14 11:42:41;;;;;;;4.20;0.60;;;16.20;7.40;;;;;;5028124;28;20957;-70
2023/10/14 11:45:07;;;;;;;3.70;0.50;;;16.20;13.80;;;;;;5030693;28;20968;-70
2023/10/14 11:47:37;;;;;;;3.90;0.60;;;16.10;14.20;;;;;;5031122;28;20392;-69
2023/10/14 11:50:11;;;;;;;3.73;0.50;;;15.80;1.00;;;;;;5030681;28;20445;-69
2023/10/14 11:52:43;;;;;;;3.70;0.43;;;15.70;43.40;;;;;;5028370;28;20403;-69
2023/10/14 11:55:14;;;;;;;4.30;0.60;;;15.70;69.80;;;;;;5028301;28;20489;-69
2023/10/14 11:57:44;;;;;;;4.78;0.80;;;15.70;54.80;;;;;;5029845;28;20415;-69
2023/10/14 12:00:11;;;;;;;4.07;0.77;;;15.80;1.00;;;;;;5034632;28;20810;-69
2023/10/14 12:02:39;;;;;;;3.80;0.60;;;15.80;1.00;;;;;;5029585;28;20410;-69
2023/10/14 12:05:05;;;;;;;4.00;0.60;;;15.70;1.00;;;;;;5030239;28;20483;-69
2023/10/14 12:07:34;;;;;;;5.70;0.80;;;15.60;1.00;;;;;;5029809;28;20435;-69
2023/10/14 12:10:08;;;;;;;4.10;0.80;;;15.40;1.00;;;;;;5028414;28;20484;-69
2023/10/14 12:12:33;;;;;;;4.50;1.20;;;15.60;1.00;;;;;;5029579;28;20494;-69
2023/10/14 12:14:59;;;;;;;4.00;0.60;;;15.80;1.00;;;;;;5030576;28;20479;-69
2023/10/14 12:17:25;;;;;;;3.90;0.70;;;16.00;1.00;;;;;;5028537;28;20407;-69
2023/10/14 12:19:51;;;;;;;3.80;0.50;;;16.00;1.00;;;;;;5029902;28;20479;-69
2023/10/14 12:22:17;;;;;;;3.90;0.60;;;15.90;1.00;;;;;;5029958;28;20410;-69
2023/10/14 12:24:44;;;;;;;3.90;0.60;;;16.00;1.00;;;;;;5029297;28;20920;-69
2023/10/14 12:27:18;;;;;;;4.28;0.73;;;15.90;1.00;;;;;;5030021;28;20387;-69
2023/10/14 12:29:44;;;;;;;3.90;0.50;;;15.80;18.30;;;;;;5028311;28;20411;-69
2023/10/14 12:32:14;;;;;;;4.20;0.60;;;16.00;7.80;;;;;;5031644;28;20402;-69
2023/10/14 12:34:43;;;;;;;3.83;0.60;;;16.10;12.90;;;;;;5028911;28;20912;-69
2023/10/14 12:37:18;;;;;;;3.80;0.50;;;16.10;16.90;;;;;;5030487;28;20396;-69
2023/10/14 12:39:55;;;;;;;4.10;0.70;;;16.10;9.10;;;;;;5025461;28;20742;-69
2023/10/14 12:42:24;;;;;;;4.32;0.70;;;16.20;24.60;;;;;;5030498;28;20383;-69
2023/10/14 12:44:52;;;;;;;4.30;0.68;;;16.20;11.50;;;;;;5031024;28;20427;-69
2023/10/14 12:47:23;;;;;;;3.80;0.50;;;16.00;1.00;;;;;;5028272;28;20406;-70
2023/10/14 12:49:50;;;;;;;4.00;0.70;;;15.60;25.30;;;;;;5026851;28;20745;-69
2023/10/14 12:52:19;;;;;;;3.70;0.50;;;15.30;17.80;;;;;;5031084;28;20399;-69
2023/10/14 12:54:53;;;;;;;3.80;0.60;;;15.30;46.80;;;;;;5026286;28;20395;-69
2023/10/14 12:57:19;;;;;;;3.95;0.70;;;15.40;31.90;;;;;;5023005;28;20413;-69
2023/10/14 12:59:46;;;;;;;4.10;0.90;;;15.30;14.70;;;;;;5028973;28;20865;-69
2023/10/14 13:02:17;;;;;;;4.30;0.73;;;15.20;1.00;;;;;;5028043;28;20406;-69
2023/10/14 13:04:42;;;;;;;3.90;0.60;;;15.20;14.70;;;;;;5012574;28;20877;-70
2023/10/14 13:07:08;;;;;;;3.90;0.65;;;15.30;5.70;;;;;;5012116;28;20499;-69
2023/10/14 13:09:35;;;;;;;3.70;0.50;;;15.30;1.50;;;;;;5049396;28;20390;-69
2023/10/14 13:12:13;;;;;;;4.10;0.77;;;15.30;1.00;;;;;;5042216;28;20565;-69
2023/10/14 13:14:39;;;;;;;3.90;0.60;;;15.30;1.00;;;;;;5020117;28;20946;-69
2023/10/14 13:17:06;;;;;;;3.90;0.50;;;15.20;1.00;;;;;;5026462;28;20477;-69
2023/10/14 13:19:35;;;;;;;3.75;0.60;;;15.10;1.00;;;;;;5031815;28;20404;-70
2023/10/14 13:22:09;;;;;;;3.80;0.60;;;15.00;1.00;;;;;;5029217;28;20395;-70
2023/10/14 13:24:36;;;;;;;3.87;0.60;;;15.00;1.00;;;;;;5030957;28;20407;-70
2023/10/14 13:27:01;;;;;;;3.90;0.80;;;15.00;1.00;;;;;;5029272;28;20888;-70
2023/10/14 13:29:27;;;;;;;3.90;0.40;;;15.00;1.00;;;;;;5027123;28;20482;-70